createdAt,value
2022-12-25T00:04:40.841Z,5.69
2022-12-25T00:09:43.049Z,5.85
2022-12-25T00:14:45.358Z,5.84
2022-12-25T00:19:47.955Z,5.88
2022-12-25T00:24:50.173Z,5.86
2022-12-25T00:29:52.198Z,6.01
2022-12-25T00:34:54.240Z,6.18
2022-12-25T00:39:56.395Z,6.20
2022-12-25T00:44:58.472Z,6.45
2022-12-25T00:50:00.563Z,6.52
2022-12-25T00:55:03.098Z,6.52
2022-12-25T01:00:05.605Z,6.53
2022-12-25T01:05:08.456Z,6.57
2022-12-25T01:10:22.859Z,6.47
2022-12-25T01:15:25.400Z,6.54
2022-12-25T01:20:27.688Z,6.46
2022-12-25T01:25:29.781Z,6.37
2022-12-25T01:30:32.464Z,6.30
2022-12-25T01:35:34.518Z,6.17
2022-12-25T01:40:36.827Z,6.10
2022-12-25T01:45:43.823Z,6.12
2022-12-25T01:50:50.495Z,6.02
2022-12-25T01:56:02.856Z,6.04
2022-12-25T02:01:04.967Z,5.92
2022-12-25T02:06:08.082Z,6.01
2022-12-25T02:11:30.143Z,6.03
2022-12-25T02:16:57.580Z,5.87
2022-12-25T02:22:26.398Z,5.81
2022-12-25T02:27:56.214Z,5.71
2022-12-25T02:33:28.317Z,5.78
2022-12-25T02:38:38.177Z,5.62
2022-12-25T02:44:02.283Z,5.62
2022-12-25T02:49:28.727Z,5.69
2022-12-25T02:54:55.147Z,5.53
2022-12-25T03:00:19.692Z,5.48
2022-12-25T03:05:43.655Z,5.41
2022-12-25T03:11:18.436Z,5.36
2022-12-25T03:16:40.537Z,5.44
2022-12-25T03:22:01.306Z,5.31
2022-12-25T03:27:03.388Z,5.31
2022-12-25T03:32:29.680Z,5.37
2022-12-25T03:38:12.098Z,5.44
2022-12-25T03:44:00.424Z,5.51
2022-12-25T03:49:29.586Z,5.51
2022-12-25T03:54:52.494Z,5.67
2022-12-25T04:00:13.541Z,5.80
2022-12-25T04:05:34.503Z,5.97
2022-12-25T04:10:55.513Z,5.96
2022-12-25T04:16:16.455Z,6.07
2022-12-25T04:21:37.303Z,6.04
2022-12-25T04:26:58.234Z,6.07
2022-12-25T04:32:18.973Z,6.07
2022-12-25T04:37:21.343Z,6.08
2022-12-25T04:42:23.459Z,5.92
2022-12-25T04:47:25.549Z,5.86
2022-12-25T04:52:27.747Z,5.87
2022-12-25T04:57:29.794Z,5.77
2022-12-25T05:02:32.270Z,5.66
2022-12-25T05:07:34.541Z,5.51
2022-12-25T05:12:36.620Z,5.27
2022-12-25T05:17:38.673Z,5.11
2022-12-25T05:22:42.588Z,4.90
2022-12-25T05:27:48.679Z,4.77
2022-12-25T05:32:54.116Z,4.66
2022-12-25T05:37:56.948Z,4.68
2022-12-25T05:42:59.171Z,4.58
2022-12-25T05:48:01.255Z,4.53
2022-12-25T05:53:08.290Z,4.48
2022-12-25T05:58:12.320Z,4.41
2022-12-25T06:03:14.479Z,4.36
2022-12-25T06:08:16.686Z,4.25
2022-12-25T06:13:18.780Z,4.21
2022-12-25T06:18:20.821Z,4.06
2022-12-25T06:23:22.906Z,3.94
2022-12-25T06:28:25.357Z,3.87
2022-12-25T06:33:27.499Z,3.80
2022-12-25T06:38:29.621Z,3.76
2022-12-25T06:43:32.949Z,3.70
2022-12-25T06:48:36.441Z,3.63
2022-12-25T06:53:40.308Z,3.60
2022-12-25T06:58:45.087Z,3.58
2022-12-25T07:03:50.166Z,3.48
2022-12-25T07:08:52.792Z,3.50
2022-12-25T07:13:55.196Z,3.67
2022-12-25T07:19:00.306Z,3.66
2022-12-25T07:24:02.430Z,3.61
2022-12-25T07:29:04.760Z,3.74
2022-12-25T07:34:06.826Z,3.81
2022-12-25T07:39:11.176Z,3.95
2022-12-25T07:44:13.673Z,4.11
2022-12-25T07:49:15.731Z,4.12
2022-12-25T07:54:17.929Z,4.33
2022-12-25T07:59:20.612Z,4.55
2022-12-25T08:04:22.713Z,4.75
2022-12-25T08:09:24.909Z,5.04
2022-12-25T08:14:27.012Z,5.12
2022-12-25T08:19:29.303Z,5.10
2022-12-25T08:24:31.380Z,5.12
2022-12-25T08:29:33.825Z,5.18
2022-12-25T08:34:38.310Z,5.55
2022-12-25T08:39:40.399Z,5.60
2022-12-25T08:44:42.536Z,5.70
2022-12-25T08:49:44.624Z,5.57
2022-12-25T08:54:47.370Z,5.86
2022-12-25T08:59:49.499Z,6.46
2022-12-25T09:04:51.622Z,6.76
2022-12-25T09:09:53.752Z,7.06
2022-12-25T09:14:55.825Z,7.36
2022-12-25T09:19:57.918Z,7.64
2022-12-25T09:25:00.036Z,8.11
2022-12-25T09:30:03.837Z,8.25
2022-12-25T09:35:07.885Z,8.63
2022-12-25T09:40:17.278Z,8.78
2022-12-25T09:45:38.733Z,9.20
2022-12-25T09:50:46.570Z,9.77
2022-12-25T09:55:57.734Z,10.56
2022-12-25T10:01:26.295Z,12.59
2022-12-25T10:07:07.622Z,12.83
2022-12-25T10:12:24.044Z,15.29
2022-12-25T10:17:36.073Z,17.30
2022-12-25T10:22:45.287Z,17.92
2022-12-25T10:27:52.879Z,16.29
2022-12-25T10:32:57.205Z,15.94
2022-12-25T10:38:06.220Z,19.28
2022-12-25T10:43:45.758Z,15.04
2022-12-25T10:48:51.883Z,19.36
2022-12-25T10:53:53.983Z,17.52
2022-12-25T10:59:06.415Z,26.38
2022-12-25T11:04:19.944Z,30.39
2022-12-25T11:09:22.218Z,33.61
2022-12-25T11:14:25.493Z,35.64
2022-12-25T11:19:30.908Z,35.91
2022-12-25T11:24:33.930Z,36.40
2022-12-25T11:29:50.706Z,37.17
2022-12-25T11:34:54.171Z,37.27
2022-12-25T11:39:56.425Z,37.31
2022-12-25T11:45:03.015Z,37.84
2022-12-25T11:50:28.618Z,37.61
2022-12-25T11:55:48.266Z,35.58
2022-12-25T12:00:53.731Z,29.70
2022-12-25T12:06:01.871Z,36.35
2022-12-25T12:11:16.199Z,36.27
2022-12-25T12:16:18.895Z,35.63
2022-12-25T12:21:27.602Z,33.94
2022-12-25T12:26:34.670Z,34.05
2022-12-25T12:31:47.287Z,31.16
2022-12-25T12:36:52.740Z,27.03
2022-12-25T12:41:54.913Z,26.07
2022-12-25T12:46:57.715Z,20.90
2022-12-25T12:52:24.216Z,18.85
2022-12-25T12:57:29.834Z,17.72
2022-12-25T13:02:56.949Z,17.09
2022-12-25T13:08:50.252Z,16.33
2022-12-25T13:13:55.137Z,15.31
2022-12-25T13:18:57.727Z,14.82
2022-12-25T13:24:02.239Z,14.33
2022-12-25T13:29:11.048Z,14.17
2022-12-25T13:34:35.872Z,14.24
2022-12-25T13:39:46.883Z,13.52
2022-12-25T13:45:01.692Z,13.68
2022-12-25T13:50:26.651Z,13.38
2022-12-25T13:55:30.551Z,13.31
2022-12-25T14:00:35.785Z,13.02
2022-12-25T14:05:42.951Z,12.91
2022-12-25T14:10:49.218Z,12.67
2022-12-25T14:15:53.546Z,12.51
2022-12-25T14:21:08.111Z,12.19
2022-12-25T14:26:17.552Z,12.15
2022-12-25T14:31:21.470Z,12.01
2022-12-25T14:36:23.873Z,11.85
2022-12-25T14:41:33.886Z,11.75
2022-12-25T14:46:36.166Z,11.64
2022-12-25T14:51:39.120Z,11.60
2022-12-25T14:56:47.202Z,11.51
2022-12-25T15:02:01.208Z,11.43
2022-12-25T15:07:09.668Z,11.27
2022-12-25T15:12:12.494Z,11.16
2022-12-25T15:17:26.412Z,10.96
2022-12-25T15:22:47.747Z,10.74
2022-12-25T15:27:50.850Z,10.62
2022-12-25T15:32:52.928Z,10.45
2022-12-25T15:37:54.980Z,10.29
2022-12-25T15:42:57.175Z,10.37
2022-12-25T15:47:59.370Z,10.31
2022-12-25T15:53:01.501Z,10.24
2022-12-25T15:58:03.584Z,10.16
2022-12-25T16:03:05.845Z,10.17
2022-12-25T16:08:09.276Z,10.24
2022-12-25T16:13:11.447Z,10.20
2022-12-25T16:18:13.633Z,10.06
2022-12-25T16:23:15.775Z,10.06
2022-12-25T16:28:17.863Z,10.08
2022-12-25T16:33:19.994Z,9.98
2022-12-25T16:38:22.204Z,10.00
2022-12-25T16:43:26.069Z,9.92
2022-12-25T16:48:28.270Z,9.74
2022-12-25T16:53:30.417Z,9.62
2022-12-25T16:58:32.533Z,9.51
2022-12-25T17:03:34.906Z,9.52
2022-12-25T17:08:37.112Z,9.40
2022-12-25T17:13:39.361Z,9.27
2022-12-25T17:18:42.683Z,9.31
2022-12-25T17:23:45.232Z,9.18
2022-12-25T17:28:47.370Z,9.21
2022-12-25T17:33:49.501Z,9.17
2022-12-25T17:38:51.668Z,8.94
2022-12-25T17:43:54.277Z,9.04
2022-12-25T17:48:58.247Z,8.98
2022-12-25T17:54:03.284Z,8.92
2022-12-25T17:59:08.360Z,8.87
2022-12-25T18:04:10.603Z,8.86
2022-12-25T18:09:13.111Z,8.65
2022-12-25T18:14:16.581Z,8.61
2022-12-25T18:19:19.736Z,8.59
2022-12-25T18:24:21.856Z,8.51
2022-12-25T18:29:23.941Z,8.51
2022-12-25T18:34:26.037Z,8.69
2022-12-25T18:39:28.723Z,8.74
2022-12-25T18:44:30.854Z,8.85
2022-12-25T18:49:33.435Z,8.90
2022-12-25T18:54:35.604Z,8.96
2022-12-25T18:59:37.844Z,8.97
2022-12-25T19:04:40.513Z,8.95
2022-12-25T19:09:42.676Z,8.93
2022-12-25T19:14:47.036Z,8.78
2022-12-25T19:19:50.607Z,8.78
2022-12-25T19:24:52.866Z,8.65
2022-12-25T19:29:55.059Z,8.69
2022-12-25T19:34:57.169Z,8.71
2022-12-25T19:39:59.229Z,8.78
2022-12-25T19:45:03.452Z,8.82
2022-12-25T19:50:06.163Z,8.89
2022-12-25T19:55:08.736Z,8.79
2022-12-25T20:00:11.167Z,8.89
2022-12-25T20:05:13.237Z,8.97
2022-12-25T20:10:15.411Z,9.04
2022-12-25T20:15:17.594Z,9.04
2022-12-25T20:20:19.674Z,9.14
2022-12-25T20:25:21.734Z,9.20
2022-12-25T20:30:23.883Z,9.26
2022-12-25T20:35:25.957Z,9.26
2022-12-25T20:40:28.058Z,9.19
2022-12-25T20:45:30.760Z,9.27
2022-12-25T20:50:32.891Z,9.31
2022-12-25T20:55:35.008Z,9.32
2022-12-25T21:00:40.361Z,9.29
2022-12-25T21:05:49.884Z,9.24
2022-12-25T21:10:55.515Z,9.21
2022-12-25T21:15:58.537Z,9.21
2022-12-25T21:21:05.457Z,9.27
2022-12-25T21:26:11.761Z,9.25
2022-12-25T21:31:14.079Z,9.24
2022-12-25T21:36:16.848Z,9.22
2022-12-25T21:41:18.952Z,9.15
2022-12-25T21:46:21.998Z,9.13
2022-12-25T21:51:46.447Z,9.18
2022-12-25T21:56:49.595Z,9.12
2022-12-25T22:01:52.785Z,9.07
2022-12-25T22:07:13.251Z,9.07
2022-12-25T22:12:35.814Z,9.01
2022-12-25T22:17:59.181Z,8.96
2022-12-25T22:23:01.539Z,8.88
2022-12-25T22:28:03.720Z,8.85
2022-12-25T22:33:06.757Z,8.81
2022-12-25T22:38:08.856Z,8.74
2022-12-25T22:43:10.957Z,8.78
2022-12-25T22:48:13.034Z,8.71
2022-12-25T22:53:15.113Z,8.67
2022-12-25T22:58:17.239Z,8.75
2022-12-25T23:03:19.407Z,8.69
2022-12-25T23:08:22.153Z,8.63
2022-12-25T23:13:42.478Z,8.72
2022-12-25T23:19:03.006Z,8.61
2022-12-25T23:24:23.989Z,8.65
2022-12-25T23:29:37.860Z,8.71
2022-12-25T23:34:41.543Z,8.74
2022-12-25T23:39:43.688Z,8.75
2022-12-25T23:44:45.837Z,8.75
2022-12-25T23:49:48.255Z,8.72
2022-12-25T23:54:50.344Z,8.62
2022-12-25T23:59:52.488Z,8.56
